createdAt,value
2018-12-29T00:01:48.234Z,3.70
2018-12-29T00:04:17.642Z,3.70
2018-12-29T00:06:47.037Z,3.70
2018-12-29T00:09:16.499Z,3.70
2018-12-29T00:11:45.819Z,3.70
2018-12-29T00:14:15.208Z,3.70
2018-12-29T00:16:44.578Z,3.70
2018-12-29T00:19:13.967Z,3.70
2018-12-29T00:21:43.321Z,3.70
2018-12-29T00:24:12.683Z,3.70
2018-12-29T00:26:42.116Z,3.70
2018-12-29T00:29:11.475Z,3.70
2018-12-29T00:31:40.850Z,3.80
2018-12-29T00:34:10.198Z,3.70
2018-12-29T00:36:39.622Z,3.80
2018-12-29T00:39:08.985Z,3.80
2018-12-29T00:41:38.350Z,3.80
2018-12-29T00:44:07.684Z,3.80
2018-12-29T00:46:37.052Z,3.80
2018-12-29T00:49:06.427Z,3.80
2018-12-29T00:51:35.772Z,3.80
2018-12-29T00:54:05.113Z,3.80
2018-12-29T00:56:34.626Z,3.80
2018-12-29T00:59:06.886Z,3.80
2018-12-29T01:01:36.231Z,3.80
2018-12-29T01:04:05.559Z,3.80
2018-12-29T01:06:34.897Z,3.80
2018-12-29T01:09:06.297Z,3.80
2018-12-29T01:11:35.669Z,3.80
2018-12-29T01:14:06.643Z,3.80
2018-12-29T01:16:36.283Z,3.80
2018-12-29T01:19:05.634Z,3.90
2018-12-29T01:21:34.985Z,3.90
2018-12-29T01:24:04.274Z,3.80
2018-12-29T01:26:33.625Z,3.90
2018-12-29T01:29:02.947Z,3.90
2018-12-29T01:31:32.268Z,3.90
2018-12-29T01:34:01.646Z,3.90
2018-12-29T01:36:30.977Z,3.90
2018-12-29T01:39:00.511Z,3.90
2018-12-29T01:41:29.809Z,3.90
2018-12-29T01:44:01.949Z,3.90
2018-12-29T01:46:31.308Z,3.90
2018-12-29T01:49:00.640Z,3.90
2018-12-29T01:51:29.955Z,3.90
2018-12-29T01:53:59.294Z,3.90
2018-12-29T01:56:28.607Z,3.90
2018-12-29T01:58:57.994Z,3.90
2018-12-29T02:01:27.281Z,3.90
2018-12-29T02:03:56.640Z,3.90
2018-12-29T02:06:25.947Z,3.90
2018-12-29T02:08:55.287Z,4.00
2018-12-29T02:11:24.618Z,3.90
2018-12-29T02:13:53.965Z,3.90
2018-12-29T02:16:23.268Z,3.90
2018-12-29T02:18:52.587Z,3.90
2018-12-29T02:21:21.935Z,3.90
2018-12-29T02:23:51.312Z,3.90
2018-12-29T02:26:20.656Z,3.90
2018-12-29T02:28:49.965Z,3.90
2018-12-29T02:31:19.313Z,3.90
2018-12-29T02:33:48.644Z,4.00
2018-12-29T02:36:17.969Z,4.00
2018-12-29T02:38:47.280Z,4.00
2018-12-29T02:41:16.637Z,4.00
2018-12-29T02:43:45.939Z,4.00
2018-12-29T02:46:15.285Z,4.00
2018-12-29T02:48:44.590Z,4.00
2018-12-29T02:51:13.921Z,4.00
2018-12-29T02:53:43.247Z,4.00
2018-12-29T02:56:12.602Z,4.00
2018-12-29T02:58:42.006Z,4.00
2018-12-29T03:01:11.355Z,4.00
2018-12-29T03:03:40.725Z,4.00
2018-12-29T03:06:10.065Z,4.00
2018-12-29T03:08:39.401Z,4.00
2018-12-29T03:11:08.760Z,4.00
2018-12-29T03:13:38.179Z,4.10
2018-12-29T03:16:07.549Z,4.10
2018-12-29T03:18:36.904Z,4.10
2018-12-29T03:21:06.215Z,4.10
2018-12-29T03:23:35.536Z,4.10
2018-12-29T03:26:04.837Z,4.10
2018-12-29T03:28:34.162Z,4.10
2018-12-29T03:31:03.546Z,4.10
2018-12-29T03:33:32.889Z,4.10
2018-12-29T03:36:02.205Z,4.10
2018-12-29T03:38:31.566Z,4.10
2018-12-29T03:41:01.053Z,4.10
2018-12-29T03:43:30.387Z,4.10
2018-12-29T03:45:59.738Z,4.10
2018-12-29T03:48:29.130Z,4.10
2018-12-29T03:50:58.433Z,4.20
2018-12-29T03:53:27.761Z,4.20
2018-12-29T03:55:57.150Z,4.20
2018-12-29T03:58:26.496Z,4.20
2018-12-29T04:00:55.817Z,4.20
2018-12-29T04:03:25.176Z,4.20
2018-12-29T04:05:54.454Z,4.20
2018-12-29T04:08:23.792Z,4.20
2018-12-29T04:10:53.067Z,4.30
2018-12-29T04:13:22.398Z,4.20
2018-12-29T04:15:58.033Z,4.20
2018-12-29T04:18:22.843Z,4.20
2018-12-29T04:20:52.170Z,4.30
2018-12-29T04:23:21.521Z,4.30
2018-12-29T04:25:52.920Z,4.30
2018-12-29T04:28:22.269Z,4.30
2018-12-29T04:30:51.658Z,4.30
2018-12-29T04:33:20.969Z,4.30
2018-12-29T04:35:50.389Z,4.30
2018-12-29T04:38:19.724Z,4.30
2018-12-29T04:40:49.080Z,4.30
2018-12-29T04:43:18.396Z,4.30
2018-12-29T04:45:47.752Z,4.30
2018-12-29T04:48:17.072Z,4.30
2018-12-29T04:50:46.410Z,4.30
2018-12-29T04:53:15.713Z,4.30
2018-12-29T04:55:45.055Z,4.40
2018-12-29T04:58:14.392Z,4.40
2018-12-29T05:00:43.753Z,4.40
2018-12-29T05:03:13.104Z,4.30
2018-12-29T05:05:42.433Z,4.40
2018-12-29T05:08:11.780Z,4.40
2018-12-29T05:10:41.081Z,4.40
2018-12-29T05:13:10.441Z,4.40
2018-12-29T05:15:39.736Z,4.40
2018-12-29T05:18:09.076Z,4.40
2018-12-29T05:20:38.392Z,4.40
2018-12-29T05:23:07.736Z,4.40
2018-12-29T05:25:37.047Z,4.40
2018-12-29T05:28:06.363Z,4.40
2018-12-29T05:30:35.687Z,4.40
2018-12-29T05:33:05.029Z,4.40
2018-12-29T05:35:34.351Z,4.40
2018-12-29T05:38:03.667Z,4.40
2018-12-29T05:40:32.979Z,4.40
2018-12-29T05:43:02.330Z,4.50
2018-12-29T05:45:31.637Z,4.50
2018-12-29T05:48:01.021Z,4.50
2018-12-29T05:50:30.328Z,4.50
2018-12-29T05:52:59.615Z,4.50
2018-12-29T05:55:28.979Z,4.50
2018-12-29T05:57:58.307Z,4.50
2018-12-29T06:00:27.609Z,4.50
2018-12-29T06:02:56.935Z,4.50
2018-12-29T06:05:26.287Z,4.50
2018-12-29T06:07:55.628Z,4.60
2018-12-29T06:10:24.944Z,4.60
2018-12-29T06:12:54.264Z,4.60
2018-12-29T06:15:23.622Z,4.60
2018-12-29T06:17:53.005Z,4.60
2018-12-29T06:20:22.327Z,4.60
2018-12-29T06:22:51.655Z,4.60
2018-12-29T06:25:21.016Z,4.60
2018-12-29T06:27:50.497Z,4.60
2018-12-29T06:30:19.946Z,4.60
2018-12-29T06:32:50.552Z,4.60
2018-12-29T06:35:20.009Z,4.60
2018-12-29T06:37:49.376Z,4.60
2018-12-29T06:40:18.757Z,4.70
2018-12-29T06:42:48.068Z,4.70
2018-12-29T06:45:17.425Z,4.70
2018-12-29T06:47:46.798Z,4.70
2018-12-29T06:50:16.172Z,4.70
2018-12-29T06:52:45.596Z,4.70
2018-12-29T06:55:14.966Z,4.70
2018-12-29T06:57:44.319Z,4.70
2018-12-29T07:00:13.776Z,4.70
2018-12-29T07:02:43.125Z,4.70
2018-12-29T07:05:12.516Z,4.70
2018-12-29T07:07:41.880Z,4.80
2018-12-29T07:10:11.381Z,4.70
2018-12-29T07:12:40.734Z,4.80
2018-12-29T07:15:10.060Z,4.80
2018-12-29T07:17:39.387Z,4.80
2018-12-29T07:20:08.733Z,4.80
2018-12-29T07:22:38.066Z,4.80
2018-12-29T07:25:07.388Z,4.80
2018-12-29T07:27:36.728Z,4.80
2018-12-29T07:30:06.804Z,4.80
2018-12-29T07:32:36.612Z,4.80
2018-12-29T07:35:06.059Z,4.80
2018-12-29T07:37:35.422Z,4.80
2018-12-29T07:40:04.930Z,4.80
2018-12-29T07:42:34.407Z,4.80
2018-12-29T07:45:03.993Z,4.90
2018-12-29T07:47:33.427Z,4.90
2018-12-29T07:50:02.878Z,4.90
2018-12-29T07:52:32.223Z,4.90
2018-12-29T07:55:01.616Z,4.90
2018-12-29T07:57:31.068Z,4.90
2018-12-29T08:00:00.467Z,4.90
2018-12-29T08:02:29.934Z,4.90
2018-12-29T08:04:59.482Z,4.90
2018-12-29T08:07:31.439Z,4.90
2018-12-29T08:10:00.858Z,4.90
2018-12-29T08:12:30.331Z,4.90
2018-12-29T08:14:59.742Z,5.00
2018-12-29T08:17:29.122Z,5.00
2018-12-29T08:19:58.511Z,5.00
2018-12-29T08:22:27.842Z,5.00
2018-12-29T08:24:57.262Z,5.00
2018-12-29T08:27:26.709Z,5.00
2018-12-29T08:29:56.137Z,5.00
2018-12-29T08:32:25.560Z,5.10
2018-12-29T08:34:54.885Z,5.00
2018-12-29T08:37:24.263Z,5.10
2018-12-29T08:39:53.668Z,5.10
2018-12-29T08:42:23.173Z,5.10
2018-12-29T08:44:52.537Z,5.10
2018-12-29T08:47:21.864Z,5.10
2018-12-29T08:49:51.212Z,5.10
2018-12-29T08:52:20.548Z,5.20
2018-12-29T08:54:49.912Z,5.20
2018-12-29T08:57:19.243Z,5.20
2018-12-29T08:59:48.549Z,5.20
2018-12-29T09:02:17.917Z,5.20
2018-12-29T09:04:47.261Z,5.20
2018-12-29T09:07:16.633Z,5.30
2018-12-29T09:09:45.941Z,5.30
2018-12-29T09:12:15.275Z,5.30
2018-12-29T09:14:44.582Z,5.30
2018-12-29T09:17:13.907Z,5.30
2018-12-29T09:19:43.213Z,5.30
2018-12-29T09:22:20.452Z,5.30
2018-12-29T09:24:49.748Z,5.30
2018-12-29T09:27:19.126Z,5.40
2018-12-29T09:29:48.430Z,5.40
2018-12-29T09:32:20.680Z,5.40
2018-12-29T09:34:51.406Z,5.40
2018-12-29T09:37:20.720Z,5.40
2018-12-29T09:39:51.123Z,5.40
2018-12-29T09:42:20.517Z,5.40
2018-12-29T09:44:49.947Z,5.50
2018-12-29T09:47:19.838Z,5.50
2018-12-29T09:49:49.453Z,5.50
2018-12-29T09:52:18.863Z,5.50
2018-12-29T09:54:48.333Z,5.60
2018-12-29T09:57:18.563Z,5.60
2018-12-29T09:59:48.020Z,5.60
2018-12-29T10:02:17.333Z,5.60
2018-12-29T10:04:46.667Z,5.70
2018-12-29T10:07:15.982Z,5.70
2018-12-29T10:09:45.351Z,5.70
2018-12-29T10:12:14.689Z,5.70
2018-12-29T10:14:46.584Z,5.80
2018-12-29T10:17:15.920Z,5.80
2018-12-29T10:19:45.399Z,5.80
2018-12-29T10:22:14.765Z,5.80
2018-12-29T10:24:44.076Z,5.80
2018-12-29T10:27:13.403Z,5.80
2018-12-29T10:29:42.716Z,5.80
2018-12-29T10:32:12.013Z,5.80
2018-12-29T10:34:41.353Z,5.80
2018-12-29T10:37:10.675Z,5.90
2018-12-29T10:39:40.004Z,5.90
2018-12-29T10:42:09.355Z,5.90
2018-12-29T10:44:38.689Z,5.90
2018-12-29T10:47:08.004Z,5.90
2018-12-29T10:49:37.337Z,5.90
2018-12-29T10:52:09.725Z,5.90
2018-12-29T10:54:39.074Z,5.90
2018-12-29T10:57:08.403Z,5.90
2018-12-29T10:59:37.906Z,5.90
2018-12-29T11:02:09.368Z,6.00
2018-12-29T11:04:38.803Z,6.00
2018-12-29T11:07:08.232Z,5.90
2018-12-29T11:09:37.624Z,6.00
2018-12-29T11:12:07.032Z,6.00
2018-12-29T11:14:36.543Z,6.00
2018-12-29T11:17:06.023Z,6.00
2018-12-29T11:19:35.570Z,6.00
2018-12-29T11:22:05.021Z,6.00
2018-12-29T11:24:34.453Z,6.00
2018-12-29T11:27:03.883Z,6.00
2018-12-29T11:29:33.387Z,6.10
2018-12-29T11:32:03.890Z,6.10
2018-12-29T11:34:33.301Z,6.10
2018-12-29T11:37:02.677Z,6.10
2018-12-29T11:39:32.133Z,6.20
2018-12-29T11:42:01.678Z,6.20
2018-12-29T11:44:32.746Z,6.20
2018-12-29T11:47:02.139Z,6.20
2018-12-29T11:49:33.127Z,6.30
2018-12-29T11:52:02.659Z,6.20
2018-12-29T11:54:32.321Z,6.30
2018-12-29T11:57:01.658Z,6.30
2018-12-29T11:59:31.028Z,6.30
2018-12-29T12:02:00.437Z,6.30
2018-12-29T12:04:30.018Z,6.40
2018-12-29T12:06:59.726Z,6.30
2018-12-29T12:09:30.348Z,6.40
2018-12-29T12:11:59.849Z,6.40
2018-12-29T12:14:32.124Z,6.40
2018-12-29T12:17:01.646Z,6.40
2018-12-29T12:19:35.666Z,6.40
2018-12-29T12:22:02.321Z,6.40
2018-12-29T12:24:31.924Z,6.40
2018-12-29T12:27:28.837Z,6.50
2018-12-29T12:29:37.338Z,6.50
2018-12-29T12:32:06.726Z,6.50
2018-12-29T12:34:36.127Z,6.50
2018-12-29T12:37:05.534Z,6.60
2018-12-29T12:39:35.072Z,6.60
2018-12-29T12:42:04.465Z,6.60
2018-12-29T12:44:36.184Z,6.60
2018-12-29T12:47:05.740Z,6.60
2018-12-29T12:49:35.125Z,6.60
2018-12-29T12:52:04.553Z,6.60
2018-12-29T12:54:34.019Z,6.60
2018-12-29T12:57:04.727Z,6.60
2018-12-29T12:59:34.501Z,6.60
2018-12-29T13:02:04.084Z,6.60
2018-12-29T13:04:33.591Z,6.60
2018-12-29T13:07:03.057Z,6.60
2018-12-29T13:09:32.520Z,6.70
2018-12-29T13:12:01.957Z,6.70
2018-12-29T13:14:31.502Z,6.70
2018-12-29T13:17:03.342Z,6.70
2018-12-29T13:19:32.701Z,6.80
2018-12-29T13:22:02.183Z,6.70
2018-12-29T13:24:31.568Z,6.70
2018-12-29T13:27:00.896Z,6.70
2018-12-29T13:29:30.370Z,6.70
2018-12-29T13:31:59.841Z,6.70
2018-12-29T13:34:29.223Z,6.70
2018-12-29T13:36:58.596Z,6.70
2018-12-29T13:39:30.685Z,6.70
2018-12-29T13:42:00.024Z,6.80
2018-12-29T13:44:29.390Z,6.80
2018-12-29T13:46:58.835Z,6.80
2018-12-29T13:49:28.232Z,6.80
2018-12-29T13:51:57.951Z,6.80
2018-12-29T13:54:27.484Z,6.80
2018-12-29T13:56:56.939Z,6.80
2018-12-29T13:59:26.539Z,6.80
2018-12-29T14:01:56.170Z,6.90
2018-12-29T14:04:25.904Z,6.90
2018-12-29T14:06:55.912Z,6.90
2018-12-29T14:09:25.593Z,6.90
2018-12-29T14:11:55.188Z,6.90
2018-12-29T14:14:24.949Z,6.90
2018-12-29T14:16:54.405Z,6.90
2018-12-29T14:19:23.902Z,6.90
2018-12-29T14:21:53.240Z,6.90
2018-12-29T14:24:22.618Z,6.90
2018-12-29T14:26:52.228Z,6.90
2018-12-29T14:29:21.723Z,6.90
2018-12-29T14:31:51.040Z,6.90
2018-12-29T14:34:20.510Z,6.90
2018-12-29T14:36:49.939Z,6.90
2018-12-29T14:39:19.250Z,6.90
2018-12-29T14:41:50.491Z,6.90
2018-12-29T14:44:20.345Z,6.90
2018-12-29T14:46:49.868Z,6.90
2018-12-29T14:49:19.728Z,6.90
2018-12-29T14:51:49.245Z,6.90
2018-12-29T14:54:18.645Z,6.90
2018-12-29T14:56:48.159Z,6.90
2018-12-29T14:59:17.689Z,6.90
2018-12-29T15:01:47.208Z,6.90
2018-12-29T15:04:16.681Z,6.90
2018-12-29T15:06:46.485Z,6.90
2018-12-29T15:09:19.371Z,6.90
2018-12-29T15:11:48.987Z,6.90
2018-12-29T15:14:18.586Z,6.90
2018-12-29T15:16:50.080Z,6.90
2018-12-29T15:19:19.618Z,7.00
2018-12-29T15:21:49.191Z,7.00
2018-12-29T15:24:18.712Z,6.90
2018-12-29T15:26:48.175Z,7.00
2018-12-29T15:29:18.091Z,7.00
2018-12-29T15:31:47.630Z,6.90
2018-12-29T15:34:17.502Z,6.90
2018-12-29T15:36:47.407Z,6.90
2018-12-29T15:39:17.471Z,6.90
2018-12-29T15:41:47.665Z,6.90
2018-12-29T15:44:17.837Z,6.90
2018-12-29T15:46:47.594Z,6.90
2018-12-29T15:49:17.349Z,6.90
2018-12-29T15:51:47.047Z,6.90
2018-12-29T15:54:17.057Z,6.90
2018-12-29T15:56:48.642Z,6.90
2018-12-29T15:59:18.418Z,6.90
2018-12-29T16:01:47.959Z,6.80
2018-12-29T16:04:17.711Z,6.80
2018-12-29T16:08:13.596Z,6.80
2018-12-29T16:09:19.184Z,6.80
2018-12-29T16:11:49.292Z,6.80
2018-12-29T16:14:21.153Z,6.80
2018-12-29T16:16:51.151Z,6.80
2018-12-29T16:19:20.802Z,6.80
2018-12-29T16:21:50.453Z,6.80
2018-12-29T16:24:20.281Z,6.90
2018-12-29T16:26:49.932Z,6.90
2018-12-29T16:29:19.517Z,6.90
2018-12-29T16:31:49.217Z,6.90
2018-12-29T16:34:18.826Z,6.90
2018-12-29T16:36:48.744Z,6.90
2018-12-29T16:39:18.402Z,7.00
2018-12-29T16:41:48.117Z,7.00
2018-12-29T16:44:17.816Z,7.00
2018-12-29T16:46:47.495Z,7.00
2018-12-29T16:49:17.429Z,7.00
2018-12-29T16:51:47.011Z,7.10
2018-12-29T16:54:16.436Z,7.10
2018-12-29T16:56:48.773Z,7.10
2018-12-29T16:59:18.245Z,7.10
2018-12-29T17:01:47.692Z,7.20
2018-12-29T17:04:17.148Z,7.20
2018-12-29T17:06:46.808Z,7.20
2018-12-29T17:09:16.586Z,7.20
2018-12-29T17:11:52.456Z,7.20
2018-12-29T17:14:28.391Z,7.20
2018-12-29T17:17:05.231Z,7.30
2018-12-29T17:19:34.942Z,7.30
2018-12-29T17:22:04.393Z,7.30
2018-12-29T17:24:33.847Z,7.40
2018-12-29T17:27:03.664Z,7.40
2018-12-29T17:29:33.150Z,7.50
2018-12-29T17:32:02.569Z,7.50
2018-12-29T17:34:31.965Z,7.50
2018-12-29T17:37:01.401Z,7.60
2018-12-29T17:39:30.709Z,7.60
2018-12-29T17:42:00.125Z,7.60
2018-12-29T17:44:29.603Z,7.60
2018-12-29T17:46:59.033Z,7.60
2018-12-29T17:49:28.410Z,7.60
2018-12-29T17:51:58.147Z,7.70
2018-12-29T17:54:27.603Z,7.70
2018-12-29T17:56:57.053Z,7.70
2018-12-29T17:59:26.480Z,7.70
2018-12-29T18:01:55.950Z,7.70
2018-12-29T18:04:25.428Z,7.70
2018-12-29T18:06:54.939Z,7.80
2018-12-29T18:09:24.416Z,7.80
2018-12-29T18:11:54.207Z,7.80
2018-12-29T18:14:23.744Z,7.80
2018-12-29T18:16:53.175Z,7.90
2018-12-29T18:19:22.654Z,7.90
2018-12-29T18:21:53.336Z,7.90
2018-12-29T18:24:22.774Z,7.90
2018-12-29T18:26:52.224Z,7.90
2018-12-29T18:29:21.693Z,8.00
2018-12-29T18:31:51.658Z,8.00
2018-12-29T18:34:21.162Z,8.00
2018-12-29T18:36:50.651Z,8.00
2018-12-29T18:39:20.170Z,8.10
2018-12-29T18:41:49.698Z,8.10
2018-12-29T18:44:19.127Z,8.10
2018-12-29T18:46:49.077Z,8.10
2018-12-29T18:49:18.528Z,8.10
2018-12-29T18:51:47.973Z,8.20
2018-12-29T18:54:32.650Z,8.20
2018-12-29T18:57:02.148Z,8.30
2018-12-29T18:59:31.626Z,8.30
2018-12-29T19:02:01.078Z,8.30
2018-12-29T19:04:30.485Z,8.30
2018-12-29T19:07:01.304Z,8.30
2018-12-29T19:09:39.366Z,8.40
2018-12-29T19:12:11.295Z,8.40
2018-12-29T19:14:40.913Z,8.40
2018-12-29T19:17:10.371Z,8.40
2018-12-29T19:19:46.271Z,8.40
2018-12-29T19:22:11.342Z,8.40
2018-12-29T19:24:40.813Z,8.40
2018-12-29T19:27:12.947Z,8.40
2018-12-29T19:29:42.845Z,8.50
2018-12-29T19:32:12.604Z,8.50
2018-12-29T19:34:42.316Z,8.50
2018-12-29T19:37:12.100Z,8.60
2018-12-29T19:39:41.940Z,8.50
2018-12-29T19:42:11.398Z,8.60
2018-12-29T19:44:40.874Z,8.50
2018-12-29T19:47:10.592Z,8.60
2018-12-29T19:49:40.565Z,8.60
2018-12-29T19:52:10.554Z,8.50
2018-12-29T19:54:40.008Z,8.50
2018-12-29T19:57:10.827Z,8.50
2018-12-29T19:59:40.910Z,8.50
2018-12-29T20:02:10.314Z,8.40
2018-12-29T20:04:39.763Z,8.30
2018-12-29T20:07:09.761Z,8.30
2018-12-29T20:21:44.499Z,8.20
2018-12-29T20:24:17.091Z,8.10
2018-12-29T20:26:48.540Z,8.10
2018-12-29T20:29:18.100Z,8.00
2018-12-29T20:31:47.529Z,8.00
2018-12-29T20:34:16.946Z,8.00
2018-12-29T20:36:46.827Z,7.90
2018-12-29T20:39:17.348Z,7.90
2018-12-29T20:41:46.860Z,7.90
2018-12-29T20:44:16.222Z,7.80
2018-12-29T20:46:48.692Z,7.80
2018-12-29T20:49:29.521Z,7.80
2018-12-29T20:51:59.059Z,7.80
2018-12-29T20:54:28.540Z,7.70
2018-12-29T20:57:03.169Z,7.70
2018-12-29T20:59:32.909Z,7.60
2018-12-29T21:02:02.401Z,7.60
2018-12-29T21:04:31.833Z,7.60
2018-12-29T21:07:03.380Z,7.60
2018-12-29T21:09:32.855Z,7.60
2018-12-29T21:12:02.659Z,7.60
2018-12-29T21:14:32.107Z,7.60
2018-12-29T21:17:03.991Z,7.60
2018-12-29T21:19:33.333Z,7.60
2018-12-29T21:22:02.814Z,7.60
2018-12-29T21:24:32.494Z,7.60
2018-12-29T21:27:02.029Z,7.50
2018-12-29T21:29:31.521Z,7.60
2018-12-29T21:32:01.063Z,7.50
2018-12-29T21:34:30.450Z,7.60
2018-12-29T21:37:00.264Z,7.60
2018-12-29T21:39:29.684Z,7.60
2018-12-29T21:41:59.245Z,7.60
2018-12-29T21:44:28.709Z,7.60
2018-12-29T21:46:58.138Z,7.60
2018-12-29T21:49:27.709Z,7.60
2018-12-29T21:51:57.139Z,7.60
2018-12-29T21:54:26.671Z,7.60
2018-12-29T21:56:56.096Z,7.60
2018-12-29T21:59:25.541Z,7.70
2018-12-29T22:01:58.988Z,7.70
2018-12-29T22:04:28.475Z,7.70
2018-12-29T22:06:57.932Z,7.60
2018-12-29T22:09:27.355Z,7.60
2018-12-29T22:11:56.795Z,7.60
2018-12-29T22:14:26.291Z,7.60
2018-12-29T22:16:56.128Z,7.60
2018-12-29T22:19:25.542Z,7.70
2018-12-29T22:21:54.938Z,7.70
2018-12-29T22:24:24.339Z,7.70
2018-12-29T22:26:53.675Z,7.70
2018-12-29T22:29:23.141Z,7.70
2018-12-29T22:31:52.617Z,7.70
2018-12-29T22:34:22.057Z,7.70
2018-12-29T22:36:54.234Z,7.80
2018-12-29T22:39:23.821Z,7.80
2018-12-29T22:41:53.241Z,7.80
2018-12-29T22:44:22.687Z,7.80
2018-12-29T22:46:56.269Z,7.80
2018-12-29T22:49:28.662Z,7.80
2018-12-29T22:52:03.374Z,7.80
2018-12-29T22:54:31.431Z,7.90
2018-12-29T22:57:00.928Z,7.90
2018-12-29T22:59:30.403Z,7.90
2018-12-29T23:01:59.828Z,7.90
2018-12-29T23:04:29.327Z,7.90
2018-12-29T23:07:00.498Z,7.90
2018-12-29T23:09:30.076Z,8.00
2018-12-29T23:11:59.861Z,7.90
2018-12-29T23:14:29.257Z,8.00
2018-12-29T23:16:59.094Z,8.00
2018-12-29T23:19:28.529Z,8.10
2018-12-29T23:21:59.137Z,8.10
2018-12-29T23:24:28.612Z,8.20
2018-12-29T23:26:58.035Z,8.20
2018-12-29T23:29:27.503Z,8.20
2018-12-29T23:31:57.093Z,8.20
2018-12-29T23:34:26.651Z,8.20
2018-12-29T23:36:57.342Z,8.20
2018-12-29T23:39:26.814Z,8.20
2018-12-29T23:41:56.393Z,8.30
2018-12-29T23:44:25.819Z,8.30
2018-12-29T23:46:55.309Z,8.30
2018-12-29T23:49:25.195Z,8.30
2018-12-29T23:51:54.946Z,8.30
2018-12-29T23:54:38.679Z,8.30
2018-12-29T23:57:13.723Z,8.30
2018-12-29T23:59:46.228Z,8.30
